<?xml version="1.0" encoding="UTF-8" standalone="no" ?>
<gpx xmlns="http://www.topografix.com/GPX/1/1" xmlns:xsi="http://www.w3.org/2001/XMLSchema-instance" xsi:schemaLocation="http://www.topografix.com/GPX/1/1 http://www.topografix.com/GPX/1/1/gpx.xsd" version="1.1" creator="VisuGPX - https://www.visugpx.com">
  <metadata>
    <name>Saverne boucle 10 Km</name>
    <desc><![CDATA[Col de Saverne]]></desc>
  </metadata>
  <trk>
    <name><![CDATA[ADi2010/08/04_17:11]]></name>
    <trkseg>
      <trkpt lat="48.7415" lon="7.35863">
        <ele>199.721802</ele>
        <time>2010-08-04T15:19:29Z</time>
      </trkpt>
      <trkpt lat="48.74131" lon="7.35183">
        <ele>195.010864</ele>
        <time>2010-08-04T15:20:29Z</time>
      </trkpt>
      <trkpt lat="48.74135" lon="7.35162">
        <ele>194.897583</ele>
        <time>2010-08-04T15:20:32Z</time>
      </trkpt>
      <trkpt lat="48.74147" lon="7.35143">
        <ele>194.581177</ele>
        <time>2010-08-04T15:20:36Z</time>
      </trkpt>
      <trkpt lat="48.74161" lon="7.35134">
        <ele>194.163208</ele>
        <time>2010-08-04T15:20:40Z</time>
      </trkpt>
      <trkpt lat="48.74175" lon="7.35137">
        <ele>194.487427</ele>
        <time>2010-08-04T15:20:44Z</time>
      </trkpt>
      <trkpt lat="48.7419" lon="7.35141">
        <ele>193.788208</ele>
        <time>2010-08-04T15:20:48Z</time>
      </trkpt>
      <trkpt lat="48.74204" lon="7.35141">
        <ele>192.171021</ele>
        <time>2010-08-04T15:20:52Z</time>
      </trkpt>
      <trkpt lat="48.74219" lon="7.35132">
        <ele>193.202271</ele>
        <time>2010-08-04T15:20:59Z</time>
      </trkpt>
      <trkpt lat="48.74217" lon="7.35108">
        <ele>194.260864</ele>
        <time>2010-08-04T15:21:05Z</time>
      </trkpt>
      <trkpt lat="48.74207" lon="7.35091">
        <ele>196.061646</ele>
        <time>2010-08-04T15:21:08Z</time>
      </trkpt>
      <trkpt lat="48.74198" lon="7.35072">
        <ele>197.256958</ele>
        <time>2010-08-04T15:21:11Z</time>
      </trkpt>
      <trkpt lat="48.74187" lon="7.35057">
        <ele>197.186646</ele>
        <time>2010-08-04T15:21:14Z</time>
      </trkpt>
      <trkpt lat="48.74176" lon="7.35039">
        <ele>195.628052</ele>
        <time>2010-08-04T15:21:19Z</time>
      </trkpt>
      <trkpt lat="48.74166" lon="7.3502">
        <ele>194.561646</ele>
        <time>2010-08-04T15:21:22Z</time>
      </trkpt>
      <trkpt lat="48.74154" lon="7.35003">
        <ele>194.417114</ele>
        <time>2010-08-04T15:21:25Z</time>
      </trkpt>
      <trkpt lat="48.74143" lon="7.34987">
        <ele>195.049927</ele>
        <time>2010-08-04T15:21:28Z</time>
      </trkpt>
      <trkpt lat="48.74131" lon="7.34968">
        <ele>195.311646</ele>
        <time>2010-08-04T15:21:31Z</time>
      </trkpt>
      <trkpt lat="48.74119" lon="7.34948">
        <ele>195.944458</ele>
        <time>2010-08-04T15:21:34Z</time>
      </trkpt>
      <trkpt lat="48.74107" lon="7.34928">
        <ele>197.030396</ele>
        <time>2010-08-04T15:21:37Z</time>
      </trkpt>
      <trkpt lat="48.74096" lon="7.34907">
        <ele>198.760864</ele>
        <time>2010-08-04T15:21:40Z</time>
      </trkpt>
      <trkpt lat="48.74083" lon="7.34889">
        <ele>197.385864</ele>
        <time>2010-08-04T15:21:43Z</time>
      </trkpt>
      <trkpt lat="48.74073" lon="7.3487">
        <ele>197.565552</ele>
        <time>2010-08-04T15:21:46Z</time>
      </trkpt>
      <trkpt lat="48.74069" lon="7.34849">
        <ele>198.667114</ele>
        <time>2010-08-04T15:21:49Z</time>
      </trkpt>
      <trkpt lat="48.74073" lon="7.34828">
        <ele>198.588989</ele>
        <time>2010-08-04T15:21:52Z</time>
      </trkpt>
      <trkpt lat="48.74082" lon="7.34809">
        <ele>195.467896</ele>
        <time>2010-08-04T15:21:56Z</time>
      </trkpt>
      <trkpt lat="48.74078" lon="7.34787">
        <ele>196.479614</ele>
        <time>2010-08-04T15:22:02Z</time>
      </trkpt>
      <trkpt lat="48.74062" lon="7.34779">
        <ele>196.440552</ele>
        <time>2010-08-04T15:22:05Z</time>
      </trkpt>
      <trkpt lat="48.74048" lon="7.34767">
        <ele>197.663208</ele>
        <time>2010-08-04T15:22:08Z</time>
      </trkpt>
      <trkpt lat="48.74037" lon="7.34755">
        <ele>200.479614</ele>
        <time>2010-08-04T15:22:12Z</time>
      </trkpt>
      <trkpt lat="48.74024" lon="7.34746">
        <ele>203.319458</ele>
        <time>2010-08-04T15:22:15Z</time>
      </trkpt>
      <trkpt lat="48.74014" lon="7.34732">
        <ele>205.057739</ele>
        <time>2010-08-04T15:22:17Z</time>
      </trkpt>
      <trkpt lat="48.74" lon="7.34714">
        <ele>207.768677</ele>
        <time>2010-08-04T15:22:20Z</time>
      </trkpt>
      <trkpt lat="48.73987" lon="7.347">
        <ele>210.010864</ele>
        <time>2010-08-04T15:22:23Z</time>
      </trkpt>
      <trkpt lat="48.73971" lon="7.34695">
        <ele>211.155396</ele>
        <time>2010-08-04T15:22:26Z</time>
      </trkpt>
      <trkpt lat="48.73949" lon="7.34695">
        <ele>208.026489</ele>
        <time>2010-08-04T15:22:29Z</time>
      </trkpt>
      <trkpt lat="48.73935" lon="7.34696">
        <ele>208.561646</ele>
        <time>2010-08-04T15:22:34Z</time>
      </trkpt>
      <trkpt lat="48.73926" lon="7.3468">
        <ele>210.225708</ele>
        <time>2010-08-04T15:22:39Z</time>
      </trkpt>
      <trkpt lat="48.73914" lon="7.34665">
        <ele>207.444458</ele>
        <time>2010-08-04T15:22:43Z</time>
      </trkpt>
      <trkpt lat="48.73903" lon="7.34652">
        <ele>207.096802</ele>
        <time>2010-08-04T15:22:46Z</time>
      </trkpt>
      <trkpt lat="48.73898" lon="7.34629">
        <ele>205.022583</ele>
        <time>2010-08-04T15:22:50Z</time>
      </trkpt>
      <trkpt lat="48.73896" lon="7.34603">
        <ele>204.296021</ele>
        <time>2010-08-04T15:22:54Z</time>
      </trkpt>
      <trkpt lat="48.73897" lon="7.34581">
        <ele>203.850708</ele>
        <time>2010-08-04T15:22:57Z</time>
      </trkpt>
      <trkpt lat="48.73899" lon="7.3456">
        <ele>203.713989</ele>
        <time>2010-08-04T15:23:00Z</time>
      </trkpt>
      <trkpt lat="48.73902" lon="7.3454">
        <ele>204.108521</ele>
        <time>2010-08-04T15:23:03Z</time>
      </trkpt>
      <trkpt lat="48.73908" lon="7.34515">
        <ele>203.893677</ele>
        <time>2010-08-04T15:23:07Z</time>
      </trkpt>
      <trkpt lat="48.73914" lon="7.34493">
        <ele>203.999146</ele>
        <time>2010-08-04T15:23:11Z</time>
      </trkpt>
      <trkpt lat="48.73922" lon="7.34471">
        <ele>205.288208</ele>
        <time>2010-08-04T15:23:15Z</time>
      </trkpt>
      <trkpt lat="48.73927" lon="7.34451">
        <ele>205.967896</ele>
        <time>2010-08-04T15:23:18Z</time>
      </trkpt>
      <trkpt lat="48.73931" lon="7.34431">
        <ele>206.393677</ele>
        <time>2010-08-04T15:23:21Z</time>
      </trkpt>
      <trkpt lat="48.73936" lon="7.34407">
        <ele>208.042114</ele>
        <time>2010-08-04T15:23:25Z</time>
      </trkpt>
      <trkpt lat="48.7394" lon="7.34383">
        <ele>209.053833</ele>
        <time>2010-08-04T15:23:29Z</time>
      </trkpt>
      <trkpt lat="48.73942" lon="7.34359">
        <ele>209.624146</ele>
        <time>2010-08-04T15:23:33Z</time>
      </trkpt>
      <trkpt lat="48.73944" lon="7.34337">
        <ele>209.057739</ele>
        <time>2010-08-04T15:23:37Z</time>
      </trkpt>
      <trkpt lat="48.73941" lon="7.34311">
        <ele>208.663208</ele>
        <time>2010-08-04T15:23:41Z</time>
      </trkpt>
      <trkpt lat="48.73936" lon="7.34288">
        <ele>209.405396</ele>
        <time>2010-08-04T15:23:45Z</time>
      </trkpt>
      <trkpt lat="48.73933" lon="7.34267">
        <ele>209.518677</ele>
        <time>2010-08-04T15:23:49Z</time>
      </trkpt>
      <trkpt lat="48.73933" lon="7.34242">
        <ele>210.506958</ele>
        <time>2010-08-04T15:23:54Z</time>
      </trkpt>
      <trkpt lat="48.73935" lon="7.34218">
        <ele>211.842896</ele>
        <time>2010-08-04T15:23:59Z</time>
      </trkpt>
      <trkpt lat="48.73937" lon="7.34197">
        <ele>212.635864</ele>
        <time>2010-08-04T15:24:03Z</time>
      </trkpt>
      <trkpt lat="48.73934" lon="7.34171">
        <ele>214.174927</ele>
        <time>2010-08-04T15:24:08Z</time>
      </trkpt>
      <trkpt lat="48.73934" lon="7.34149">
        <ele>215.846802</ele>
        <time>2010-08-04T15:24:13Z</time>
      </trkpt>
      <trkpt lat="48.73933" lon="7.34128">
        <ele>217.417114</ele>
        <time>2010-08-04T15:24:18Z</time>
      </trkpt>
      <trkpt lat="48.73934" lon="7.34107">
        <ele>217.780396</ele>
        <time>2010-08-04T15:24:24Z</time>
      </trkpt>
      <trkpt lat="48.73938" lon="7.34085">
        <ele>218.335083</ele>
        <time>2010-08-04T15:24:30Z</time>
      </trkpt>
      <trkpt lat="48.7394" lon="7.34065">
        <ele>218.881958</ele>
        <time>2010-08-04T15:24:36Z</time>
      </trkpt>
      <trkpt lat="48.73943" lon="7.34045">
        <ele>222.503052</ele>
        <time>2010-08-04T15:24:43Z</time>
      </trkpt>
      <trkpt lat="48.73943" lon="7.34024">
        <ele>226.077271</ele>
        <time>2010-08-04T15:24:50Z</time>
      </trkpt>
      <trkpt lat="48.73948" lon="7.34005">
        <ele>228.151489</ele>
        <time>2010-08-04T15:24:56Z</time>
      </trkpt>
      <trkpt lat="48.73955" lon="7.33987">
        <ele>230.846802</ele>
        <time>2010-08-04T15:25:02Z</time>
      </trkpt>
      <trkpt lat="48.73957" lon="7.33966">
        <ele>234.835083</ele>
        <time>2010-08-04T15:25:10Z</time>
      </trkpt>
      <trkpt lat="48.73958" lon="7.33945">
        <ele>236.120239</ele>
        <time>2010-08-04T15:25:20Z</time>
      </trkpt>
      <trkpt lat="48.7396" lon="7.33924">
        <ele>234.815552</ele>
        <time>2010-08-04T15:25:31Z</time>
      </trkpt>
      <trkpt lat="48.73966" lon="7.33904">
        <ele>236.030396</ele>
        <time>2010-08-04T15:25:41Z</time>
      </trkpt>
      <trkpt lat="48.7397" lon="7.33882">
        <ele>236.678833</ele>
        <time>2010-08-04T15:25:50Z</time>
      </trkpt>
      <trkpt lat="48.73972" lon="7.3386">
        <ele>236.268677</ele>
        <time>2010-08-04T15:25:58Z</time>
      </trkpt>
      <trkpt lat="48.73976" lon="7.3384">
        <ele>236.190552</ele>
        <time>2010-08-04T15:26:05Z</time>
      </trkpt>
      <trkpt lat="48.73983" lon="7.33819">
        <ele>238.960083</ele>
        <time>2010-08-04T15:26:12Z</time>
      </trkpt>
      <trkpt lat="48.73988" lon="7.33799">
        <ele>241.147583</ele>
        <time>2010-08-04T15:26:18Z</time>
      </trkpt>
      <trkpt lat="48.73995" lon="7.3378">
        <ele>243.756958</ele>
        <time>2010-08-04T15:26:24Z</time>
      </trkpt>
      <trkpt lat="48.74" lon="7.33758">
        <ele>243.174927</ele>
        <time>2010-08-04T15:26:30Z</time>
      </trkpt>
      <trkpt lat="48.74004" lon="7.33739">
        <ele>244.585083</ele>
        <time>2010-08-04T15:26:35Z</time>
      </trkpt>
      <trkpt lat="48.74009" lon="7.33719">
        <ele>245.452271</ele>
        <time>2010-08-04T15:26:40Z</time>
      </trkpt>
      <trkpt lat="48.74014" lon="7.33699">
        <ele>246.706177</ele>
        <time>2010-08-04T15:26:45Z</time>
      </trkpt>
      <trkpt lat="48.74018" lon="7.33679">
        <ele>246.600708</ele>
        <time>2010-08-04T15:26:50Z</time>
      </trkpt>
      <trkpt lat="48.74021" lon="7.33659">
        <ele>247.553833</ele>
        <time>2010-08-04T15:26:55Z</time>
      </trkpt>
      <trkpt lat="48.74026" lon="7.33639">
        <ele>249.046021</ele>
        <time>2010-08-04T15:27:00Z</time>
      </trkpt>
      <trkpt lat="48.74024" lon="7.33618">
        <ele>250.866333</ele>
        <time>2010-08-04T15:27:05Z</time>
      </trkpt>
      <trkpt lat="48.74027" lon="7.33596">
        <ele>251.530396</ele>
        <time>2010-08-04T15:27:10Z</time>
      </trkpt>
      <trkpt lat="48.7403" lon="7.3357">
        <ele>252.397583</ele>
        <time>2010-08-04T15:27:14Z</time>
      </trkpt>
      <trkpt lat="48.74033" lon="7.33544">
        <ele>253.604614</ele>
        <time>2010-08-04T15:27:18Z</time>
      </trkpt>
      <trkpt lat="48.74036" lon="7.33518">
        <ele>254.713989</ele>
        <time>2010-08-04T15:27:22Z</time>
      </trkpt>
      <trkpt lat="48.74039" lon="7.33498">
        <ele>254.831177</ele>
        <time>2010-08-04T15:27:25Z</time>
      </trkpt>
      <trkpt lat="48.74042" lon="7.33477">
        <ele>254.881958</ele>
        <time>2010-08-04T15:27:28Z</time>
      </trkpt>
      <trkpt lat="48.74046" lon="7.33456">
        <ele>255.639771</ele>
        <time>2010-08-04T15:27:31Z</time>
      </trkpt>
      <trkpt lat="48.74053" lon="7.33435">
        <ele>256.599854</ele>
        <time>2010-08-04T15:27:34Z</time>
      </trkpt>
      <trkpt lat="48.74057" lon="7.33413">
        <ele>256.498291</ele>
        <time>2010-08-04T15:27:37Z</time>
      </trkpt>
      <trkpt lat="48.74061" lon="7.33391">
        <ele>256.592041</ele>
        <time>2010-08-04T15:27:40Z</time>
      </trkpt>
      <trkpt lat="48.74066" lon="7.3337">
        <ele>256.951416</ele>
        <time>2010-08-04T15:27:43Z</time>
      </trkpt>
      <trkpt lat="48.74069" lon="7.33349">
        <ele>257.334229</ele>
        <time>2010-08-04T15:27:46Z</time>
      </trkpt>
      <trkpt lat="48.7407" lon="7.33326">
        <ele>257.537354</ele>
        <time>2010-08-04T15:27:49Z</time>
      </trkpt>
      <trkpt lat="48.7407" lon="7.33301">
        <ele>255.022583</ele>
        <time>2010-08-04T15:27:52Z</time>
      </trkpt>
      <trkpt lat="48.74073" lon="7.33279">
        <ele>255.213989</ele>
        <time>2010-08-04T15:27:55Z</time>
      </trkpt>
      <trkpt lat="48.74073" lon="7.33254">
        <ele>255.463989</ele>
        <time>2010-08-04T15:27:58Z</time>
      </trkpt>
      <trkpt lat="48.74075" lon="7.33231">
        <ele>255.710083</ele>
        <time>2010-08-04T15:28:01Z</time>
      </trkpt>
      <trkpt lat="48.7408" lon="7.33206">
        <ele>255.112427</ele>
        <time>2010-08-04T15:28:04Z</time>
      </trkpt>
      <trkpt lat="48.74086" lon="7.3318">
        <ele>255.573364</ele>
        <time>2010-08-04T15:28:07Z</time>
      </trkpt>
      <trkpt lat="48.74091" lon="7.33157">
        <ele>255.323364</ele>
        <time>2010-08-04T15:28:10Z</time>
      </trkpt>
      <trkpt lat="48.74092" lon="7.33133">
        <ele>254.909302</ele>
        <time>2010-08-04T15:28:13Z</time>
      </trkpt>
      <trkpt lat="48.74095" lon="7.33111">
        <ele>255.421021</ele>
        <time>2010-08-04T15:28:16Z</time>
      </trkpt>
      <trkpt lat="48.74097" lon="7.33087">
        <ele>255.835083</ele>
        <time>2010-08-04T15:28:19Z</time>
      </trkpt>
      <trkpt lat="48.74101" lon="7.33063">
        <ele>256.217041</ele>
        <time>2010-08-04T15:28:22Z</time>
      </trkpt>
      <trkpt lat="48.74106" lon="7.3304">
        <ele>256.592041</ele>
        <time>2010-08-04T15:28:25Z</time>
      </trkpt>
      <trkpt lat="48.74111" lon="7.33017">
        <ele>256.998291</ele>
        <time>2010-08-04T15:28:28Z</time>
      </trkpt>
      <trkpt lat="48.74115" lon="7.32996">
        <ele>257.029541</ele>
        <time>2010-08-04T15:28:31Z</time>
      </trkpt>
      <trkpt lat="48.7412" lon="7.32974">
        <ele>257.576416</ele>
        <time>2010-08-04T15:28:34Z</time>
      </trkpt>
      <trkpt lat="48.74125" lon="7.32951">
        <ele>257.521729</ele>
        <time>2010-08-04T15:28:37Z</time>
      </trkpt>
      <trkpt lat="48.74128" lon="7.32928">
        <ele>257.092041</ele>
        <time>2010-08-04T15:28:40Z</time>
      </trkpt>
      <trkpt lat="48.7413" lon="7.32907">
        <ele>257.623291</ele>
        <time>2010-08-04T15:28:43Z</time>
      </trkpt>
      <trkpt lat="48.74131" lon="7.32885">
        <ele>256.662354</ele>
        <time>2010-08-04T15:28:47Z</time>
      </trkpt>
      <trkpt lat="48.74131" lon="7.32862">
        <ele>256.318604</ele>
        <time>2010-08-04T15:28:51Z</time>
      </trkpt>
      <trkpt lat="48.74132" lon="7.32837">
        <ele>257.342041</ele>
        <time>2010-08-04T15:28:54Z</time>
      </trkpt>
      <trkpt lat="48.74133" lon="7.32808">
        <ele>257.146729</ele>
        <time>2010-08-04T15:28:57Z</time>
      </trkpt>
      <trkpt lat="48.74135" lon="7.32781">
        <ele>257.240479</ele>
        <time>2010-08-04T15:29:00Z</time>
      </trkpt>
      <trkpt lat="48.74139" lon="7.32754">
        <ele>257.427979</ele>
        <time>2010-08-04T15:29:03Z</time>
      </trkpt>
      <trkpt lat="48.74144" lon="7.32728">
        <ele>257.435791</ele>
        <time>2010-08-04T15:29:06Z</time>
      </trkpt>
      <trkpt lat="48.7415" lon="7.32701">
        <ele>257.185791</ele>
        <time>2010-08-04T15:29:09Z</time>
      </trkpt>
      <trkpt lat="48.7416" lon="7.32675">
        <ele>257.076416</ele>
        <time>2010-08-04T15:29:12Z</time>
      </trkpt>
      <trkpt lat="48.74167" lon="7.32649">
        <ele>256.006104</ele>
        <time>2010-08-04T15:29:15Z</time>
      </trkpt>
      <trkpt lat="48.74173" lon="7.32622">
        <ele>255.405396</ele>
        <time>2010-08-04T15:29:18Z</time>
      </trkpt>
      <trkpt lat="48.74181" lon="7.32595">
        <ele>254.311646</ele>
        <time>2010-08-04T15:29:21Z</time>
      </trkpt>
      <trkpt lat="48.74184" lon="7.32565">
        <ele>253.042114</ele>
        <time>2010-08-04T15:29:24Z</time>
      </trkpt>
      <trkpt lat="48.74191" lon="7.32538">
        <ele>251.354614</ele>
        <time>2010-08-04T15:29:27Z</time>
      </trkpt>
      <trkpt lat="48.74195" lon="7.32516">
        <ele>250.163208</ele>
        <time>2010-08-04T15:29:30Z</time>
      </trkpt>
      <trkpt lat="48.74209" lon="7.32495">
        <ele>249.440552</ele>
        <time>2010-08-04T15:29:33Z</time>
      </trkpt>
      <trkpt lat="48.74214" lon="7.32467">
        <ele>248.753052</ele>
        <time>2010-08-04T15:29:36Z</time>
      </trkpt>
      <trkpt lat="48.74223" lon="7.32445">
        <ele>248.592896</ele>
        <time>2010-08-04T15:29:39Z</time>
      </trkpt>
      <trkpt lat="48.7423" lon="7.32425">
        <ele>248.022583</ele>
        <time>2010-08-04T15:29:42Z</time>
      </trkpt>
      <trkpt lat="48.74247" lon="7.32409">
        <ele>248.221802</ele>
        <time>2010-08-04T15:29:45Z</time>
      </trkpt>
      <trkpt lat="48.74251" lon="7.32383">
        <ele>247.995239</ele>
        <time>2010-08-04T15:29:49Z</time>
      </trkpt>
      <trkpt lat="48.74262" lon="7.3237">
        <ele>247.772583</ele>
        <time>2010-08-04T15:29:51Z</time>
      </trkpt>
      <trkpt lat="48.74283" lon="7.32366">
        <ele>247.987427</ele>
        <time>2010-08-04T15:29:52Z</time>
      </trkpt>
      <trkpt lat="48.74291" lon="7.3235">
        <ele>247.249146</ele>
        <time>2010-08-04T15:29:54Z</time>
      </trkpt>
      <trkpt lat="48.74296" lon="7.32327">
        <ele>247.174927</ele>
        <time>2010-08-04T15:29:58Z</time>
      </trkpt>
      <trkpt lat="48.74307" lon="7.32308">
        <ele>245.452271</ele>
        <time>2010-08-04T15:30:02Z</time>
      </trkpt>
      <trkpt lat="48.74321" lon="7.32302">
        <ele>245.366333</ele>
        <time>2010-08-04T15:30:04Z</time>
      </trkpt>
      <trkpt lat="48.74337" lon="7.32296">
        <ele>245.608521</ele>
        <time>2010-08-04T15:30:06Z</time>
      </trkpt>
      <trkpt lat="48.7435" lon="7.3229">
        <ele>246.409302</ele>
        <time>2010-08-04T15:30:08Z</time>
      </trkpt>
      <trkpt lat="48.74365" lon="7.32272">
        <ele>246.538208</ele>
        <time>2010-08-04T15:30:13Z</time>
      </trkpt>
      <trkpt lat="48.74376" lon="7.32258">
        <ele>246.698364</ele>
        <time>2010-08-04T15:30:17Z</time>
      </trkpt>
      <trkpt lat="48.74386" lon="7.32243">
        <ele>245.952271</ele>
        <time>2010-08-04T15:30:21Z</time>
      </trkpt>
      <trkpt lat="48.74398" lon="7.32227">
        <ele>245.510864</ele>
        <time>2010-08-04T15:30:25Z</time>
      </trkpt>
      <trkpt lat="48.74408" lon="7.32211">
        <ele>245.667114</ele>
        <time>2010-08-04T15:30:30Z</time>
      </trkpt>
      <trkpt lat="48.74418" lon="7.32198">
        <ele>244.604614</ele>
        <time>2010-08-04T15:30:35Z</time>
      </trkpt>
      <trkpt lat="48.74432" lon="7.32191">
        <ele>245.100708</ele>
        <time>2010-08-04T15:30:39Z</time>
      </trkpt>
      <trkpt lat="48.74447" lon="7.32184">
        <ele>245.006958</ele>
        <time>2010-08-04T15:30:44Z</time>
      </trkpt>
      <trkpt lat="48.74461" lon="7.32176">
        <ele>244.842896</ele>
        <time>2010-08-04T15:30:50Z</time>
      </trkpt>
      <trkpt lat="48.74474" lon="7.3217">
        <ele>244.772583</ele>
        <time>2010-08-04T15:31:00Z</time>
      </trkpt>
      <trkpt lat="48.74488" lon="7.32166">
        <ele>246.077271</ele>
        <time>2010-08-04T15:31:09Z</time>
      </trkpt>
      <trkpt lat="48.74501" lon="7.32167">
        <ele>248.256958</ele>
        <time>2010-08-04T15:31:17Z</time>
      </trkpt>
      <trkpt lat="48.74514" lon="7.32157">
        <ele>252.624146</ele>
        <time>2010-08-04T15:31:26Z</time>
      </trkpt>
      <trkpt lat="48.74526" lon="7.32151">
        <ele>255.686646</ele>
        <time>2010-08-04T15:31:35Z</time>
      </trkpt>
      <trkpt lat="48.7454" lon="7.32144">
        <ele>258.006104</ele>
        <time>2010-08-04T15:31:42Z</time>
      </trkpt>
      <trkpt lat="48.74555" lon="7.32142">
        <ele>255.085083</ele>
        <time>2010-08-04T15:31:49Z</time>
      </trkpt>
      <trkpt lat="48.7457" lon="7.32143">
        <ele>254.253052</ele>
        <time>2010-08-04T15:31:55Z</time>
      </trkpt>
      <trkpt lat="48.74586" lon="7.32138">
        <ele>254.268677</ele>
        <time>2010-08-04T15:32:02Z</time>
      </trkpt>
      <trkpt lat="48.74601" lon="7.32131">
        <ele>254.534302</ele>
        <time>2010-08-04T15:32:08Z</time>
      </trkpt>
      <trkpt lat="48.74616" lon="7.32124">
        <ele>256.662354</ele>
        <time>2010-08-04T15:32:13Z</time>
      </trkpt>
      <trkpt lat="48.74631" lon="7.32116">
        <ele>257.974854</ele>
        <time>2010-08-04T15:32:18Z</time>
      </trkpt>
      <trkpt lat="48.74648" lon="7.32112">
        <ele>260.490479</ele>
        <time>2010-08-04T15:32:23Z</time>
      </trkpt>
      <trkpt lat="48.74661" lon="7.32108">
        <ele>263.576416</ele>
        <time>2010-08-04T15:32:28Z</time>
      </trkpt>
      <trkpt lat="48.74675" lon="7.321">
        <ele>267.685791</ele>
        <time>2010-08-04T15:32:34Z</time>
      </trkpt>
      <trkpt lat="48.74689" lon="7.32092">
        <ele>271.029541</ele>
        <time>2010-08-04T15:32:39Z</time>
      </trkpt>
      <trkpt lat="48.74704" lon="7.3209">
        <ele>273.982666</ele>
        <time>2010-08-04T15:32:43Z</time>
      </trkpt>
      <trkpt lat="48.7472" lon="7.32087">
        <ele>278.873291</ele>
        <time>2010-08-04T15:32:48Z</time>
      </trkpt>
      <trkpt lat="48.74734" lon="7.32081">
        <ele>283.802979</ele>
        <time>2010-08-04T15:32:53Z</time>
      </trkpt>
      <trkpt lat="48.74748" lon="7.32078">
        <ele>287.779541</ele>
        <time>2010-08-04T15:32:58Z</time>
      </trkpt>
      <trkpt lat="48.74762" lon="7.32081">
        <ele>292.404541</ele>
        <time>2010-08-04T15:33:04Z</time>
      </trkpt>
      <trkpt lat="48.74776" lon="7.3208">
        <ele>297.584229</ele>
        <time>2010-08-04T15:33:09Z</time>
      </trkpt>
      <trkpt lat="48.74792" lon="7.32077">
        <ele>301.076416</ele>
        <time>2010-08-04T15:33:15Z</time>
      </trkpt>
      <trkpt lat="48.74804" lon="7.32066">
        <ele>303.349854</ele>
        <time>2010-08-04T15:33:24Z</time>
      </trkpt>
      <trkpt lat="48.74818" lon="7.32062">
        <ele>306.506104</ele>
        <time>2010-08-04T15:33:31Z</time>
      </trkpt>
      <trkpt lat="48.7483" lon="7.32051">
        <ele>307.959229</ele>
        <time>2010-08-04T15:33:35Z</time>
      </trkpt>
      <trkpt lat="48.74844" lon="7.32047">
        <ele>308.787354</ele>
        <time>2010-08-04T15:33:40Z</time>
      </trkpt>
      <trkpt lat="48.74858" lon="7.32036">
        <ele>305.896729</ele>
        <time>2010-08-04T15:33:43Z</time>
      </trkpt>
      <trkpt lat="48.74872" lon="7.32031">
        <ele>306.959229</ele>
        <time>2010-08-04T15:33:48Z</time>
      </trkpt>
      <trkpt lat="48.74888" lon="7.32029">
        <ele>304.107666</ele>
        <time>2010-08-04T15:33:52Z</time>
      </trkpt>
      <trkpt lat="48.74902" lon="7.32021">
        <ele>303.607666</ele>
        <time>2010-08-04T15:33:57Z</time>
      </trkpt>
      <trkpt lat="48.74915" lon="7.32013">
        <ele>303.302979</ele>
        <time>2010-08-04T15:34:02Z</time>
      </trkpt>
      <trkpt lat="48.74929" lon="7.32005">
        <ele>303.529541</ele>
        <time>2010-08-04T15:34:07Z</time>
      </trkpt>
      <trkpt lat="48.74944" lon="7.32006">
        <ele>301.763916</ele>
        <time>2010-08-04T15:34:12Z</time>
      </trkpt>
      <trkpt lat="48.74959" lon="7.32">
        <ele>299.662354</ele>
        <time>2010-08-04T15:34:18Z</time>
      </trkpt>
      <trkpt lat="48.74974" lon="7.31995">
        <ele>298.420166</ele>
        <time>2010-08-04T15:34:25Z</time>
      </trkpt>
      <trkpt lat="48.74985" lon="7.31984">
        <ele>305.521729</ele>
        <time>2010-08-04T15:34:34Z</time>
      </trkpt>
      <trkpt lat="48.74997" lon="7.31975">
        <ele>305.521729</ele>
        <time>2010-08-04T15:34:41Z</time>
      </trkpt>
      <trkpt lat="48.75011" lon="7.31969">
        <ele>303.138916</ele>
        <time>2010-08-04T15:34:49Z</time>
      </trkpt>
      <trkpt lat="48.75025" lon="7.31977">
        <ele>302.607666</ele>
        <time>2010-08-04T15:34:59Z</time>
      </trkpt>
      <trkpt lat="48.75037" lon="7.31967">
        <ele>304.006104</ele>
        <time>2010-08-04T15:35:11Z</time>
      </trkpt>
      <trkpt lat="48.75052" lon="7.31966">
        <ele>300.388916</ele>
        <time>2010-08-04T15:35:19Z</time>
      </trkpt>
      <trkpt lat="48.75066" lon="7.31959">
        <ele>298.154541</ele>
        <time>2010-08-04T15:35:28Z</time>
      </trkpt>
      <trkpt lat="48.75084" lon="7.31952">
        <ele>297.037354</ele>
        <time>2010-08-04T15:35:38Z</time>
      </trkpt>
      <trkpt lat="48.75099" lon="7.31947">
        <ele>300.217041</ele>
        <time>2010-08-04T15:35:52Z</time>
      </trkpt>
      <trkpt lat="48.75113" lon="7.31947">
        <ele>299.631104</ele>
        <time>2010-08-04T15:36:00Z</time>
      </trkpt>
      <trkpt lat="48.75126" lon="7.31943">
        <ele>298.677979</ele>
        <time>2010-08-04T15:36:11Z</time>
      </trkpt>
      <trkpt lat="48.7514" lon="7.31936">
        <ele>299.513916</ele>
        <time>2010-08-04T15:36:20Z</time>
      </trkpt>
      <trkpt lat="48.75153" lon="7.31942">
        <ele>297.029541</ele>
        <time>2010-08-04T15:36:28Z</time>
      </trkpt>
      <trkpt lat="48.75168" lon="7.3194">
        <ele>296.912354</ele>
        <time>2010-08-04T15:36:37Z</time>
      </trkpt>
      <trkpt lat="48.75182" lon="7.3194">
        <ele>302.771729</ele>
        <time>2010-08-04T15:36:48Z</time>
      </trkpt>
      <trkpt lat="48.75191" lon="7.31953">
        <ele>308.435791</ele>
        <time>2010-08-04T15:36:57Z</time>
      </trkpt>
      <trkpt lat="48.75202" lon="7.31962">
        <ele>316.810791</ele>
        <time>2010-08-04T15:37:20Z</time>
      </trkpt>
      <trkpt lat="48.75219" lon="7.31966">
        <ele>319.732666</ele>
        <time>2010-08-04T15:37:23Z</time>
      </trkpt>
      <trkpt lat="48.75232" lon="7.31979">
        <ele>323.396729</ele>
        <time>2010-08-04T15:37:29Z</time>
      </trkpt>
      <trkpt lat="48.75245" lon="7.31985">
        <ele>326.107666</ele>
        <time>2010-08-04T15:37:32Z</time>
      </trkpt>
      <trkpt lat="48.75256" lon="7.31974">
        <ele>330.349854</ele>
        <time>2010-08-04T15:37:45Z</time>
      </trkpt>
      <trkpt lat="48.75295" lon="7.31982">
        <ele>332.404541</ele>
        <time>2010-08-04T15:37:47Z</time>
      </trkpt>
      <trkpt lat="48.75312" lon="7.31986">
        <ele>332.677979</ele>
        <time>2010-08-04T15:37:49Z</time>
      </trkpt>
      <trkpt lat="48.7533" lon="7.31986">
        <ele>333.662354</ele>
        <time>2010-08-04T15:37:53Z</time>
      </trkpt>
      <trkpt lat="48.75344" lon="7.31984">
        <ele>336.537354</ele>
        <time>2010-08-04T15:37:57Z</time>
      </trkpt>
      <trkpt lat="48.75357" lon="7.31981">
        <ele>339.107666</ele>
        <time>2010-08-04T15:38:01Z</time>
      </trkpt>
      <trkpt lat="48.7537" lon="7.31975">
        <ele>342.123291</ele>
        <time>2010-08-04T15:38:07Z</time>
      </trkpt>
      <trkpt lat="48.75383" lon="7.31975">
        <ele>344.802979</ele>
        <time>2010-08-04T15:38:12Z</time>
      </trkpt>
      <trkpt lat="48.75395" lon="7.31992">
        <ele>344.881104</ele>
        <time>2010-08-04T15:38:17Z</time>
      </trkpt>
      <trkpt lat="48.7541" lon="7.31995">
        <ele>344.740479</ele>
        <time>2010-08-04T15:38:24Z</time>
      </trkpt>
      <trkpt lat="48.75425" lon="7.31997">
        <ele>347.021729</ele>
        <time>2010-08-04T15:38:30Z</time>
      </trkpt>
      <trkpt lat="48.7544" lon="7.32">
        <ele>347.974854</ele>
        <time>2010-08-04T15:38:36Z</time>
      </trkpt>
      <trkpt lat="48.75452" lon="7.3201">
        <ele>350.045166</ele>
        <time>2010-08-04T15:38:39Z</time>
      </trkpt>
      <trkpt lat="48.75464" lon="7.32021">
        <ele>350.810791</ele>
        <time>2010-08-04T15:38:52Z</time>
      </trkpt>
      <trkpt lat="48.75476" lon="7.32031">
        <ele>348.967041</ele>
        <time>2010-08-04T15:39:00Z</time>
      </trkpt>
      <trkpt lat="48.75489" lon="7.32037">
        <ele>347.951416</ele>
        <time>2010-08-04T15:39:06Z</time>
      </trkpt>
      <trkpt lat="48.75501" lon="7.32047">
        <ele>346.381104</ele>
        <time>2010-08-04T15:39:14Z</time>
      </trkpt>
      <trkpt lat="48.75515" lon="7.32059">
        <ele>345.818604</ele>
        <time>2010-08-04T15:39:24Z</time>
      </trkpt>
      <trkpt lat="48.75528" lon="7.3207">
        <ele>344.693604</ele>
        <time>2010-08-04T15:39:36Z</time>
      </trkpt>
      <trkpt lat="48.7554" lon="7.32082">
        <ele>345.943604</ele>
        <time>2010-08-04T15:40:03Z</time>
      </trkpt>
      <trkpt lat="48.75554" lon="7.32086">
        <ele>347.959229</ele>
        <time>2010-08-04T15:40:14Z</time>
      </trkpt>
      <trkpt lat="48.75566" lon="7.32096">
        <ele>349.888916</ele>
        <time>2010-08-04T15:40:28Z</time>
      </trkpt>
      <trkpt lat="48.75577" lon="7.32107">
        <ele>352.506104</ele>
        <time>2010-08-04T15:40:51Z</time>
      </trkpt>
      <trkpt lat="48.75591" lon="7.32117">
        <ele>353.396729</ele>
        <time>2010-08-04T15:41:04Z</time>
      </trkpt>
      <trkpt lat="48.75607" lon="7.32122">
        <ele>353.193604</ele>
        <time>2010-08-04T15:41:17Z</time>
      </trkpt>
      <trkpt lat="48.7562" lon="7.32131">
        <ele>354.248291</ele>
        <time>2010-08-04T15:41:36Z</time>
      </trkpt>
      <trkpt lat="48.75633" lon="7.3214">
        <ele>352.896729</ele>
        <time>2010-08-04T15:43:14Z</time>
      </trkpt>
      <trkpt lat="48.75648" lon="7.32139">
        <ele>351.779541</ele>
        <time>2010-08-04T15:44:41Z</time>
      </trkpt>
      <trkpt lat="48.75662" lon="7.32134">
        <ele>354.763916</ele>
        <time>2010-08-04T15:44:52Z</time>
      </trkpt>
      <trkpt lat="48.75675" lon="7.32137">
        <ele>357.849854</ele>
        <time>2010-08-04T15:45:02Z</time>
      </trkpt>
      <trkpt lat="48.75686" lon="7.32127">
        <ele>362.279541</ele>
        <time>2010-08-04T15:45:14Z</time>
      </trkpt>
      <trkpt lat="48.75699" lon="7.32117">
        <ele>363.677979</ele>
        <time>2010-08-04T15:45:23Z</time>
      </trkpt>
      <trkpt lat="48.75712" lon="7.32111">
        <ele>368.646729</ele>
        <time>2010-08-04T15:45:37Z</time>
      </trkpt>
      <trkpt lat="48.75725" lon="7.3211">
        <ele>375.131104</ele>
        <time>2010-08-04T15:45:52Z</time>
      </trkpt>
      <trkpt lat="48.75739" lon="7.32116">
        <ele>375.795166</ele>
        <time>2010-08-04T15:46:03Z</time>
      </trkpt>
      <trkpt lat="48.75752" lon="7.32117">
        <ele>372.638916</ele>
        <time>2010-08-04T15:46:15Z</time>
      </trkpt>
      <trkpt lat="48.75766" lon="7.3212">
        <ele>370.482666</ele>
        <time>2010-08-04T15:46:27Z</time>
      </trkpt>
      <trkpt lat="48.75778" lon="7.32125">
        <ele>364.357666</ele>
        <time>2010-08-04T15:46:37Z</time>
      </trkpt>
      <trkpt lat="48.75792" lon="7.32128">
        <ele>364.552979</ele>
        <time>2010-08-04T15:47:21Z</time>
      </trkpt>
      <trkpt lat="48.75786" lon="7.32147">
        <ele>365.951416</ele>
        <time>2010-08-04T15:47:34Z</time>
      </trkpt>
      <trkpt lat="48.7577" lon="7.32153">
        <ele>368.326416</ele>
        <time>2010-08-04T15:47:44Z</time>
      </trkpt>
      <trkpt lat="48.75762" lon="7.32172">
        <ele>371.365479</ele>
        <time>2010-08-04T15:47:48Z</time>
      </trkpt>
      <trkpt lat="48.75755" lon="7.32192">
        <ele>375.920166</ele>
        <time>2010-08-04T15:47:57Z</time>
      </trkpt>
      <trkpt lat="48.75746" lon="7.32207">
        <ele>380.349854</ele>
        <time>2010-08-04T15:48:05Z</time>
      </trkpt>
      <trkpt lat="48.75735" lon="7.32222">
        <ele>383.224854</ele>
        <time>2010-08-04T15:48:12Z</time>
      </trkpt>
      <trkpt lat="48.75723" lon="7.32231">
        <ele>385.748291</ele>
        <time>2010-08-04T15:48:20Z</time>
      </trkpt>
      <trkpt lat="48.75709" lon="7.32241">
        <ele>388.248291</ele>
        <time>2010-08-04T15:48:28Z</time>
      </trkpt>
      <trkpt lat="48.757" lon="7.32259">
        <ele>390.763916</ele>
        <time>2010-08-04T15:48:34Z</time>
      </trkpt>
      <trkpt lat="48.75711" lon="7.32272">
        <ele>393.802979</ele>
        <time>2010-08-04T15:48:51Z</time>
      </trkpt>
      <trkpt lat="48.75726" lon="7.32269">
        <ele>396.482666</ele>
        <time>2010-08-04T15:48:58Z</time>
      </trkpt>
      <trkpt lat="48.7574" lon="7.32271">
        <ele>399.967041</ele>
        <time>2010-08-04T15:49:03Z</time>
      </trkpt>
      <trkpt lat="48.75752" lon="7.32272">
        <ele>407.967041</ele>
        <time>2010-08-04T15:49:09Z</time>
      </trkpt>
      <trkpt lat="48.75765" lon="7.32279">
        <ele>403.060791</ele>
        <time>2010-08-04T15:49:15Z</time>
      </trkpt>
      <trkpt lat="48.7578" lon="7.32287">
        <ele>400.998291</ele>
        <time>2010-08-04T15:49:22Z</time>
      </trkpt>
      <trkpt lat="48.75792" lon="7.32297">
        <ele>397.857666</ele>
        <time>2010-08-04T15:49:27Z</time>
      </trkpt>
      <trkpt lat="48.75806" lon="7.32305">
        <ele>399.670166</ele>
        <time>2010-08-04T15:49:34Z</time>
      </trkpt>
      <trkpt lat="48.7582" lon="7.32304">
        <ele>404.420166</ele>
        <time>2010-08-04T15:49:42Z</time>
      </trkpt>
      <trkpt lat="48.75834" lon="7.323">
        <ele>407.576416</ele>
        <time>2010-08-04T15:49:51Z</time>
      </trkpt>
      <trkpt lat="48.75845" lon="7.32285">
        <ele>408.467041</ele>
        <time>2010-08-04T15:50:00Z</time>
      </trkpt>
      <trkpt lat="48.75856" lon="7.32267">
        <ele>410.115479</ele>
        <time>2010-08-04T15:50:07Z</time>
      </trkpt>
      <trkpt lat="48.75869" lon="7.32254">
        <ele>410.513916</ele>
        <time>2010-08-04T15:50:13Z</time>
      </trkpt>
      <trkpt lat="48.75884" lon="7.32245">
        <ele>410.568604</ele>
        <time>2010-08-04T15:50:18Z</time>
      </trkpt>
      <trkpt lat="48.75898" lon="7.32241">
        <ele>408.529541</ele>
        <time>2010-08-04T15:50:23Z</time>
      </trkpt>
      <trkpt lat="48.75912" lon="7.3224">
        <ele>409.802979</ele>
        <time>2010-08-04T15:50:28Z</time>
      </trkpt>
      <trkpt lat="48.75925" lon="7.32235">
        <ele>411.146729</ele>
        <time>2010-08-04T15:50:33Z</time>
      </trkpt>
      <trkpt lat="48.7594" lon="7.32234">
        <ele>414.177979</ele>
        <time>2010-08-04T15:50:40Z</time>
      </trkpt>
      <trkpt lat="48.75954" lon="7.32238">
        <ele>416.388916</ele>
        <time>2010-08-04T15:50:46Z</time>
      </trkpt>
      <trkpt lat="48.75969" lon="7.32245">
        <ele>417.349854</ele>
        <time>2010-08-04T15:50:51Z</time>
      </trkpt>
      <trkpt lat="48.75982" lon="7.32253">
        <ele>416.857666</ele>
        <time>2010-08-04T15:50:57Z</time>
      </trkpt>
      <trkpt lat="48.75996" lon="7.32254">
        <ele>417.834229</ele>
        <time>2010-08-04T15:51:00Z</time>
      </trkpt>
      <trkpt lat="48.7601" lon="7.32256">
        <ele>422.537354</ele>
        <time>2010-08-04T15:51:04Z</time>
      </trkpt>
      <trkpt lat="48.76026" lon="7.32255">
        <ele>425.998291</ele>
        <time>2010-08-04T15:51:09Z</time>
      </trkpt>
      <trkpt lat="48.7604" lon="7.32255">
        <ele>429.662354</ele>
        <time>2010-08-04T15:51:14Z</time>
      </trkpt>
      <trkpt lat="48.76054" lon="7.32244">
        <ele>430.498291</ele>
        <time>2010-08-04T15:51:21Z</time>
      </trkpt>
      <trkpt lat="48.76064" lon="7.3223">
        <ele>430.162354</ele>
        <time>2010-08-04T15:51:28Z</time>
      </trkpt>
      <trkpt lat="48.76077" lon="7.32219">
        <ele>432.263916</ele>
        <time>2010-08-04T15:51:34Z</time>
      </trkpt>
      <trkpt lat="48.7609" lon="7.32211">
        <ele>433.201416</ele>
        <time>2010-08-04T15:51:42Z</time>
      </trkpt>
      <trkpt lat="48.76104" lon="7.32207">
        <ele>433.045166</ele>
        <time>2010-08-04T15:51:51Z</time>
      </trkpt>
      <trkpt lat="48.76119" lon="7.32204">
        <ele>430.365479</ele>
        <time>2010-08-04T15:51:57Z</time>
      </trkpt>
      <trkpt lat="48.76132" lon="7.32205">
        <ele>425.115479</ele>
        <time>2010-08-04T15:52:03Z</time>
      </trkpt>
      <trkpt lat="48.76148" lon="7.32206">
        <ele>423.826416</ele>
        <time>2010-08-04T15:52:11Z</time>
      </trkpt>
      <trkpt lat="48.76161" lon="7.32211">
        <ele>420.474854</ele>
        <time>2010-08-04T15:52:17Z</time>
      </trkpt>
      <trkpt lat="48.76172" lon="7.32227">
        <ele>421.490479</ele>
        <time>2010-08-04T15:52:24Z</time>
      </trkpt>
      <trkpt lat="48.76184" lon="7.32237">
        <ele>425.217041</ele>
        <time>2010-08-04T15:52:33Z</time>
      </trkpt>
      <trkpt lat="48.76195" lon="7.32251">
        <ele>428.709229</ele>
        <time>2010-08-04T15:52:41Z</time>
      </trkpt>
      <trkpt lat="48.76206" lon="7.32265">
        <ele>432.295166</ele>
        <time>2010-08-04T15:52:48Z</time>
      </trkpt>
      <trkpt lat="48.76212" lon="7.32288">
        <ele>431.459229</ele>
        <time>2010-08-04T15:52:55Z</time>
      </trkpt>
      <trkpt lat="48.76226" lon="7.323">
        <ele>430.631104</ele>
        <time>2010-08-04T15:52:58Z</time>
      </trkpt>
      <trkpt lat="48.76239" lon="7.32313">
        <ele>427.693604</ele>
        <time>2010-08-04T15:53:03Z</time>
      </trkpt>
      <trkpt lat="48.76253" lon="7.32325">
        <ele>426.404541</ele>
        <time>2010-08-04T15:53:07Z</time>
      </trkpt>
      <trkpt lat="48.76266" lon="7.32335">
        <ele>423.435791</ele>
        <time>2010-08-04T15:53:12Z</time>
      </trkpt>
      <trkpt lat="48.7626" lon="7.32354">
        <ele>423.552979</ele>
        <time>2010-08-04T15:53:18Z</time>
      </trkpt>
      <trkpt lat="48.76247" lon="7.32373">
        <ele>423.599854</ele>
        <time>2010-08-04T15:53:22Z</time>
      </trkpt>
      <trkpt lat="48.76237" lon="7.3239">
        <ele>423.787354</ele>
        <time>2010-08-04T15:53:25Z</time>
      </trkpt>
      <trkpt lat="48.76225" lon="7.32407">
        <ele>423.756104</ele>
        <time>2010-08-04T15:53:28Z</time>
      </trkpt>
      <trkpt lat="48.76213" lon="7.32425">
        <ele>422.990479</ele>
        <time>2010-08-04T15:53:31Z</time>
      </trkpt>
      <trkpt lat="48.76201" lon="7.32442">
        <ele>422.592041</ele>
        <time>2010-08-04T15:53:34Z</time>
      </trkpt>
      <trkpt lat="48.76189" lon="7.32459">
        <ele>421.920166</ele>
        <time>2010-08-04T15:53:37Z</time>
      </trkpt>
      <trkpt lat="48.76177" lon="7.32477">
        <ele>421.951416</ele>
        <time>2010-08-04T15:53:40Z</time>
      </trkpt>
      <trkpt lat="48.76165" lon="7.32495">
        <ele>420.482666</ele>
        <time>2010-08-04T15:53:43Z</time>
      </trkpt>
      <trkpt lat="48.76151" lon="7.32514">
        <ele>418.802979</ele>
        <time>2010-08-04T15:53:46Z</time>
      </trkpt>
      <trkpt lat="48.76139" lon="7.32533">
        <ele>416.795166</ele>
        <time>2010-08-04T15:53:49Z</time>
      </trkpt>
      <trkpt lat="48.76125" lon="7.32551">
        <ele>416.076416</ele>
        <time>2010-08-04T15:53:52Z</time>
      </trkpt>
      <trkpt lat="48.76109" lon="7.32568">
        <ele>415.310791</ele>
        <time>2010-08-04T15:53:55Z</time>
      </trkpt>
      <trkpt lat="48.76093" lon="7.32584">
        <ele>414.201416</ele>
        <time>2010-08-04T15:53:58Z</time>
      </trkpt>
      <trkpt lat="48.76076" lon="7.32598">
        <ele>413.599854</ele>
        <time>2010-08-04T15:54:01Z</time>
      </trkpt>
      <trkpt lat="48.76059" lon="7.32614">
        <ele>412.170166</ele>
        <time>2010-08-04T15:54:04Z</time>
      </trkpt>
      <trkpt lat="48.76046" lon="7.32624">
        <ele>412.123291</ele>
        <time>2010-08-04T15:54:06Z</time>
      </trkpt>
      <trkpt lat="48.76034" lon="7.32634">
        <ele>412.092041</ele>
        <time>2010-08-04T15:54:08Z</time>
      </trkpt>
      <trkpt lat="48.76022" lon="7.32645">
        <ele>410.920166</ele>
        <time>2010-08-04T15:54:10Z</time>
      </trkpt>
      <trkpt lat="48.7601" lon="7.32655">
        <ele>410.670166</ele>
        <time>2010-08-04T15:54:12Z</time>
      </trkpt>
      <trkpt lat="48.75998" lon="7.32665">
        <ele>410.412354</ele>
        <time>2010-08-04T15:54:14Z</time>
      </trkpt>
      <trkpt lat="48.7598" lon="7.32679">
        <ele>410.224854</ele>
        <time>2010-08-04T15:54:17Z</time>
      </trkpt>
      <trkpt lat="48.75962" lon="7.32692">
        <ele>410.506104</ele>
        <time>2010-08-04T15:54:20Z</time>
      </trkpt>
      <trkpt lat="48.75947" lon="7.32706">
        <ele>409.131104</ele>
        <time>2010-08-04T15:54:23Z</time>
      </trkpt>
      <trkpt lat="48.7593" lon="7.32718">
        <ele>408.904541</ele>
        <time>2010-08-04T15:54:26Z</time>
      </trkpt>
      <trkpt lat="48.75915" lon="7.32733">
        <ele>408.006104</ele>
        <time>2010-08-04T15:54:29Z</time>
      </trkpt>
      <trkpt lat="48.75898" lon="7.32747">
        <ele>407.451416</ele>
        <time>2010-08-04T15:54:32Z</time>
      </trkpt>
      <trkpt lat="48.75883" lon="7.32761">
        <ele>406.256104</ele>
        <time>2010-08-04T15:54:35Z</time>
      </trkpt>
      <trkpt lat="48.75867" lon="7.32777">
        <ele>405.693604</ele>
        <time>2010-08-04T15:54:38Z</time>
      </trkpt>
      <trkpt lat="48.75852" lon="7.32792">
        <ele>404.717041</ele>
        <time>2010-08-04T15:54:41Z</time>
      </trkpt>
      <trkpt lat="48.75836" lon="7.32806">
        <ele>404.177979</ele>
        <time>2010-08-04T15:54:44Z</time>
      </trkpt>
      <trkpt lat="48.75819" lon="7.3282">
        <ele>403.185791</ele>
        <time>2010-08-04T15:54:47Z</time>
      </trkpt>
      <trkpt lat="48.75802" lon="7.32835">
        <ele>403.381104</ele>
        <time>2010-08-04T15:54:50Z</time>
      </trkpt>
      <trkpt lat="48.75784" lon="7.32849">
        <ele>402.888916</ele>
        <time>2010-08-04T15:54:53Z</time>
      </trkpt>
      <trkpt lat="48.75768" lon="7.32862">
        <ele>402.990479</ele>
        <time>2010-08-04T15:54:56Z</time>
      </trkpt>
      <trkpt lat="48.75751" lon="7.32875">
        <ele>403.357666</ele>
        <time>2010-08-04T15:54:59Z</time>
      </trkpt>
      <trkpt lat="48.75736" lon="7.32887">
        <ele>403.920166</ele>
        <time>2010-08-04T15:55:02Z</time>
      </trkpt>
      <trkpt lat="48.75723" lon="7.32896">
        <ele>405.154541</ele>
        <time>2010-08-04T15:55:05Z</time>
      </trkpt>
      <trkpt lat="48.7571" lon="7.32903">
        <ele>405.021729</ele>
        <time>2010-08-04T15:55:10Z</time>
      </trkpt>
      <trkpt lat="48.75702" lon="7.32885">
        <ele>404.865479</ele>
        <time>2010-08-04T15:55:15Z</time>
      </trkpt>
      <trkpt lat="48.75697" lon="7.32862">
        <ele>404.943604</ele>
        <time>2010-08-04T15:55:21Z</time>
      </trkpt>
      <trkpt lat="48.75691" lon="7.32843">
        <ele>404.271729</ele>
        <time>2010-08-04T15:55:27Z</time>
      </trkpt>
      <trkpt lat="48.75684" lon="7.32823">
        <ele>405.420166</ele>
        <time>2010-08-04T15:55:33Z</time>
      </trkpt>
      <trkpt lat="48.75679" lon="7.32802">
        <ele>405.927979</ele>
        <time>2010-08-04T15:55:40Z</time>
      </trkpt>
      <trkpt lat="48.75671" lon="7.32783">
        <ele>408.193604</ele>
        <time>2010-08-04T15:55:47Z</time>
      </trkpt>
      <trkpt lat="48.75669" lon="7.32762">
        <ele>409.709229</ele>
        <time>2010-08-04T15:55:56Z</time>
      </trkpt>
      <trkpt lat="48.75663" lon="7.32741">
        <ele>411.037354</ele>
        <time>2010-08-04T15:56:03Z</time>
      </trkpt>
      <trkpt lat="48.75658" lon="7.32721">
        <ele>411.373291</ele>
        <time>2010-08-04T15:56:11Z</time>
      </trkpt>
      <trkpt lat="48.75653" lon="7.32702">
        <ele>409.998291</ele>
        <time>2010-08-04T15:56:19Z</time>
      </trkpt>
      <trkpt lat="48.75641" lon="7.32714">
        <ele>411.435791</ele>
        <time>2010-08-04T15:56:26Z</time>
      </trkpt>
      <trkpt lat="48.75631" lon="7.32733">
        <ele>410.654541</ele>
        <time>2010-08-04T15:56:32Z</time>
      </trkpt>
      <trkpt lat="48.75621" lon="7.32752">
        <ele>411.295166</ele>
        <time>2010-08-04T15:56:39Z</time>
      </trkpt>
      <trkpt lat="48.75614" lon="7.32769">
        <ele>411.654541</ele>
        <time>2010-08-04T15:56:45Z</time>
      </trkpt>
      <trkpt lat="48.75605" lon="7.32786">
        <ele>411.013916</ele>
        <time>2010-08-04T15:56:52Z</time>
      </trkpt>
      <trkpt lat="48.75595" lon="7.328">
        <ele>411.724854</ele>
        <time>2010-08-04T15:56:58Z</time>
      </trkpt>
      <trkpt lat="48.75584" lon="7.32815">
        <ele>412.560791</ele>
        <time>2010-08-04T15:57:05Z</time>
      </trkpt>
      <trkpt lat="48.75574" lon="7.32829">
        <ele>415.232666</ele>
        <time>2010-08-04T15:57:14Z</time>
      </trkpt>
      <trkpt lat="48.75563" lon="7.32844">
        <ele>417.349854</ele>
        <time>2010-08-04T15:57:22Z</time>
      </trkpt>
      <trkpt lat="48.75554" lon="7.32858">
        <ele>421.099854</ele>
        <time>2010-08-04T15:57:30Z</time>
      </trkpt>
      <trkpt lat="48.75542" lon="7.32869">
        <ele>424.052979</ele>
        <time>2010-08-04T15:57:39Z</time>
      </trkpt>
      <trkpt lat="48.75534" lon="7.32888">
        <ele>424.060791</ele>
        <time>2010-08-04T15:57:49Z</time>
      </trkpt>
      <trkpt lat="48.75525" lon="7.32905">
        <ele>424.076416</ele>
        <time>2010-08-04T15:57:57Z</time>
      </trkpt>
      <trkpt lat="48.75514" lon="7.32919">
        <ele>423.779541</ele>
        <time>2010-08-04T15:58:03Z</time>
      </trkpt>
      <trkpt lat="48.75506" lon="7.32939">
        <ele>423.896729</ele>
        <time>2010-08-04T15:58:10Z</time>
      </trkpt>
      <trkpt lat="48.75499" lon="7.32956">
        <ele>423.310791</ele>
        <time>2010-08-04T15:58:16Z</time>
      </trkpt>
      <trkpt lat="48.75488" lon="7.3297">
        <ele>421.732666</ele>
        <time>2010-08-04T15:58:23Z</time>
      </trkpt>
      <trkpt lat="48.75473" lon="7.32971">
        <ele>422.420166</ele>
        <time>2010-08-04T15:58:30Z</time>
      </trkpt>
      <trkpt lat="48.75458" lon="7.32977">
        <ele>422.904541</ele>
        <time>2010-08-04T15:58:36Z</time>
      </trkpt>
      <trkpt lat="48.75445" lon="7.32984">
        <ele>421.709229</ele>
        <time>2010-08-04T15:58:41Z</time>
      </trkpt>
      <trkpt lat="48.75431" lon="7.3299">
        <ele>421.529541</ele>
        <time>2010-08-04T15:58:46Z</time>
      </trkpt>
      <trkpt lat="48.75418" lon="7.32996">
        <ele>422.959229</ele>
        <time>2010-08-04T15:58:51Z</time>
      </trkpt>
      <trkpt lat="48.75408" lon="7.3301">
        <ele>420.787354</ele>
        <time>2010-08-04T15:58:58Z</time>
      </trkpt>
      <trkpt lat="48.75399" lon="7.33026">
        <ele>422.248291</ele>
        <time>2010-08-04T15:59:20Z</time>
      </trkpt>
      <trkpt lat="48.75391" lon="7.33043">
        <ele>422.826416</ele>
        <time>2010-08-04T15:59:26Z</time>
      </trkpt>
      <trkpt lat="48.75377" lon="7.33055">
        <ele>426.052979</ele>
        <time>2010-08-04T15:59:34Z</time>
      </trkpt>
      <trkpt lat="48.75364" lon="7.33066">
        <ele>426.724854</ele>
        <time>2010-08-04T15:59:39Z</time>
      </trkpt>
      <trkpt lat="48.75351" lon="7.33077">
        <ele>430.420166</ele>
        <time>2010-08-04T15:59:46Z</time>
      </trkpt>
      <trkpt lat="48.75347" lon="7.33094">
        <ele>422.099854</ele>
        <time>2010-08-04T16:00:07Z</time>
      </trkpt>
      <trkpt lat="48.75335" lon="7.33104">
        <ele>422.302979</ele>
        <time>2010-08-04T16:00:15Z</time>
      </trkpt>
      <trkpt lat="48.75324" lon="7.33118">
        <ele>423.584229</ele>
        <time>2010-08-04T16:00:40Z</time>
      </trkpt>
      <trkpt lat="48.75312" lon="7.33132">
        <ele>425.388916</ele>
        <time>2010-08-04T16:00:48Z</time>
      </trkpt>
      <trkpt lat="48.75301" lon="7.3315">
        <ele>425.849854</ele>
        <time>2010-08-04T16:00:55Z</time>
      </trkpt>
      <trkpt lat="48.75291" lon="7.33165">
        <ele>427.357666</ele>
        <time>2010-08-04T16:00:59Z</time>
      </trkpt>
      <trkpt lat="48.75284" lon="7.33185">
        <ele>428.701416</ele>
        <time>2010-08-04T16:01:03Z</time>
      </trkpt>
      <trkpt lat="48.75276" lon="7.33202">
        <ele>431.795166</ele>
        <time>2010-08-04T16:01:07Z</time>
      </trkpt>
      <trkpt lat="48.75272" lon="7.33222">
        <ele>434.615479</ele>
        <time>2010-08-04T16:01:11Z</time>
      </trkpt>
      <trkpt lat="48.75266" lon="7.33243">
        <ele>436.381104</ele>
        <time>2010-08-04T16:01:14Z</time>
      </trkpt>
      <trkpt lat="48.75256" lon="7.33262">
        <ele>436.201416</ele>
        <time>2010-08-04T16:01:19Z</time>
      </trkpt>
      <trkpt lat="48.75246" lon="7.33283">
        <ele>432.295166</ele>
        <time>2010-08-04T16:01:25Z</time>
      </trkpt>
      <trkpt lat="48.7524" lon="7.33304">
        <ele>427.420166</ele>
        <time>2010-08-04T16:01:31Z</time>
      </trkpt>
      <trkpt lat="48.75227" lon="7.33312">
        <ele>420.146729</ele>
        <time>2010-08-04T16:01:37Z</time>
      </trkpt>
      <trkpt lat="48.75214" lon="7.33315">
        <ele>410.904541</ele>
        <time>2010-08-04T16:01:42Z</time>
      </trkpt>
      <trkpt lat="48.75202" lon="7.33326">
        <ele>408.427979</ele>
        <time>2010-08-04T16:01:47Z</time>
      </trkpt>
      <trkpt lat="48.75187" lon="7.33337">
        <ele>405.888916</ele>
        <time>2010-08-04T16:01:53Z</time>
      </trkpt>
      <trkpt lat="48.75179" lon="7.33357">
        <ele>401.396729</ele>
        <time>2010-08-04T16:01:58Z</time>
      </trkpt>
      <trkpt lat="48.75172" lon="7.33376">
        <ele>399.670166</ele>
        <time>2010-08-04T16:02:02Z</time>
      </trkpt>
      <trkpt lat="48.75167" lon="7.33396">
        <ele>394.404541</ele>
        <time>2010-08-04T16:02:06Z</time>
      </trkpt>
      <trkpt lat="48.7516" lon="7.33416">
        <ele>392.381104</ele>
        <time>2010-08-04T16:02:12Z</time>
      </trkpt>
      <trkpt lat="48.7516" lon="7.33438">
        <ele>389.115479</ele>
        <time>2010-08-04T16:02:17Z</time>
      </trkpt>
      <trkpt lat="48.75154" lon="7.33457">
        <ele>387.662354</ele>
        <time>2010-08-04T16:02:22Z</time>
      </trkpt>
      <trkpt lat="48.75148" lon="7.33478">
        <ele>387.310791</ele>
        <time>2010-08-04T16:02:26Z</time>
      </trkpt>
      <trkpt lat="48.75139" lon="7.33497">
        <ele>387.115479</ele>
        <time>2010-08-04T16:02:31Z</time>
      </trkpt>
      <trkpt lat="48.75129" lon="7.33519">
        <ele>388.842041</ele>
        <time>2010-08-04T16:02:35Z</time>
      </trkpt>
      <trkpt lat="48.75123" lon="7.3354">
        <ele>389.998291</ele>
        <time>2010-08-04T16:02:39Z</time>
      </trkpt>
      <trkpt lat="48.75116" lon="7.33556">
        <ele>386.584229</ele>
        <time>2010-08-04T16:02:56Z</time>
      </trkpt>
      <trkpt lat="48.75114" lon="7.33576">
        <ele>380.107666</ele>
        <time>2010-08-04T16:03:05Z</time>
      </trkpt>
      <trkpt lat="48.75106" lon="7.33596">
        <ele>378.420166</ele>
        <time>2010-08-04T16:03:10Z</time>
      </trkpt>
      <trkpt lat="48.75097" lon="7.33612">
        <ele>376.427979</ele>
        <time>2010-08-04T16:03:16Z</time>
      </trkpt>
      <trkpt lat="48.75093" lon="7.33634">
        <ele>370.006104</ele>
        <time>2010-08-04T16:03:21Z</time>
      </trkpt>
      <trkpt lat="48.75086" lon="7.33653">
        <ele>367.170166</ele>
        <time>2010-08-04T16:03:26Z</time>
      </trkpt>
      <trkpt lat="48.75082" lon="7.33678">
        <ele>363.810791</ele>
        <time>2010-08-04T16:03:32Z</time>
      </trkpt>
      <trkpt lat="48.75078" lon="7.33697">
        <ele>362.982666</ele>
        <time>2010-08-04T16:03:37Z</time>
      </trkpt>
      <trkpt lat="48.75066" lon="7.33709">
        <ele>361.959229</ele>
        <time>2010-08-04T16:03:43Z</time>
      </trkpt>
      <trkpt lat="48.75052" lon="7.33724">
        <ele>359.537354</ele>
        <time>2010-08-04T16:03:49Z</time>
      </trkpt>
      <trkpt lat="48.75037" lon="7.33735">
        <ele>358.709229</ele>
        <time>2010-08-04T16:03:55Z</time>
      </trkpt>
      <trkpt lat="48.75024" lon="7.33744">
        <ele>359.115479</ele>
        <time>2010-08-04T16:04:00Z</time>
      </trkpt>
      <trkpt lat="48.75011" lon="7.33752">
        <ele>358.740479</ele>
        <time>2010-08-04T16:04:03Z</time>
      </trkpt>
      <trkpt lat="48.74998" lon="7.33761">
        <ele>359.310791</ele>
        <time>2010-08-04T16:04:06Z</time>
      </trkpt>
      <trkpt lat="48.74987" lon="7.33778">
        <ele>357.490479</ele>
        <time>2010-08-04T16:04:09Z</time>
      </trkpt>
      <trkpt lat="48.74979" lon="7.33798">
        <ele>354.232666</ele>
        <time>2010-08-04T16:04:12Z</time>
      </trkpt>
      <trkpt lat="48.7497" lon="7.33816">
        <ele>353.146729</ele>
        <time>2010-08-04T16:04:16Z</time>
      </trkpt>
      <trkpt lat="48.74955" lon="7.33831">
        <ele>353.388916</ele>
        <time>2010-08-04T16:04:19Z</time>
      </trkpt>
      <trkpt lat="48.74952" lon="7.33853">
        <ele>350.373291</ele>
        <time>2010-08-04T16:04:23Z</time>
      </trkpt>
      <trkpt lat="48.74952" lon="7.33873">
        <ele>346.451416</ele>
        <time>2010-08-04T16:04:43Z</time>
      </trkpt>
      <trkpt lat="48.74942" lon="7.33889">
        <ele>342.607666</ele>
        <time>2010-08-04T16:04:54Z</time>
      </trkpt>
      <trkpt lat="48.74932" lon="7.33906">
        <ele>342.029541</ele>
        <time>2010-08-04T16:05:00Z</time>
      </trkpt>
      <trkpt lat="48.74921" lon="7.33923">
        <ele>339.388916</ele>
        <time>2010-08-04T16:05:05Z</time>
      </trkpt>
      <trkpt lat="48.74918" lon="7.33942">
        <ele>334.224854</ele>
        <time>2010-08-04T16:05:13Z</time>
      </trkpt>
      <trkpt lat="48.74913" lon="7.33965">
        <ele>328.037354</ele>
        <time>2010-08-04T16:05:21Z</time>
      </trkpt>
      <trkpt lat="48.74904" lon="7.33986">
        <ele>327.271729</ele>
        <time>2010-08-04T16:05:25Z</time>
      </trkpt>
      <trkpt lat="48.74897" lon="7.34008">
        <ele>326.959229</ele>
        <time>2010-08-04T16:05:29Z</time>
      </trkpt>
      <trkpt lat="48.74892" lon="7.34027">
        <ele>322.459229</ele>
        <time>2010-08-04T16:05:33Z</time>
      </trkpt>
      <trkpt lat="48.74889" lon="7.34048">
        <ele>319.818604</ele>
        <time>2010-08-04T16:05:44Z</time>
      </trkpt>
      <trkpt lat="48.74884" lon="7.3407">
        <ele>318.256104</ele>
        <time>2010-08-04T16:05:53Z</time>
      </trkpt>
      <trkpt lat="48.7488" lon="7.3409">
        <ele>320.677979</ele>
        <time>2010-08-04T16:06:18Z</time>
      </trkpt>
      <trkpt lat="48.74874" lon="7.34107">
        <ele>316.959229</ele>
        <time>2010-08-04T16:06:25Z</time>
      </trkpt>
      <trkpt lat="48.74868" lon="7.34126">
        <ele>314.443604</ele>
        <time>2010-08-04T16:06:32Z</time>
      </trkpt>
      <trkpt lat="48.74861" lon="7.34145">
        <ele>316.123291</ele>
        <time>2010-08-04T16:06:40Z</time>
      </trkpt>
      <trkpt lat="48.74851" lon="7.34159">
        <ele>312.451416</ele>
        <time>2010-08-04T16:07:20Z</time>
      </trkpt>
      <trkpt lat="48.74846" lon="7.34183">
        <ele>312.076416</ele>
        <time>2010-08-04T16:07:26Z</time>
      </trkpt>
      <trkpt lat="48.74839" lon="7.34203">
        <ele>311.670166</ele>
        <time>2010-08-04T16:07:30Z</time>
      </trkpt>
      <trkpt lat="48.74833" lon="7.34223">
        <ele>311.529541</ele>
        <time>2010-08-04T16:07:34Z</time>
      </trkpt>
      <trkpt lat="48.74826" lon="7.3424">
        <ele>306.459229</ele>
        <time>2010-08-04T16:07:38Z</time>
      </trkpt>
      <trkpt lat="48.74819" lon="7.3426">
        <ele>302.576416</ele>
        <time>2010-08-04T16:07:41Z</time>
      </trkpt>
      <trkpt lat="48.74809" lon="7.3428">
        <ele>300.834229</ele>
        <time>2010-08-04T16:07:44Z</time>
      </trkpt>
      <trkpt lat="48.74805" lon="7.34302">
        <ele>300.677979</ele>
        <time>2010-08-04T16:07:48Z</time>
      </trkpt>
      <trkpt lat="48.74791" lon="7.3431">
        <ele>300.935791</ele>
        <time>2010-08-04T16:07:54Z</time>
      </trkpt>
      <trkpt lat="48.74776" lon="7.34327">
        <ele>299.638916</ele>
        <time>2010-08-04T16:07:58Z</time>
      </trkpt>
      <trkpt lat="48.74762" lon="7.34338">
        <ele>298.185791</ele>
        <time>2010-08-04T16:08:03Z</time>
      </trkpt>
      <trkpt lat="48.74749" lon="7.34343">
        <ele>296.748291</ele>
        <time>2010-08-04T16:08:07Z</time>
      </trkpt>
      <trkpt lat="48.7474" lon="7.34362">
        <ele>291.826416</ele>
        <time>2010-08-04T16:08:12Z</time>
      </trkpt>
      <trkpt lat="48.74727" lon="7.34375">
        <ele>290.388916</ele>
        <time>2010-08-04T16:08:17Z</time>
      </trkpt>
      <trkpt lat="48.74718" lon="7.34398">
        <ele>287.052979</ele>
        <time>2010-08-04T16:08:23Z</time>
      </trkpt>
      <trkpt lat="48.74704" lon="7.34402">
        <ele>283.685791</ele>
        <time>2010-08-04T16:08:28Z</time>
      </trkpt>
      <trkpt lat="48.74689" lon="7.34406">
        <ele>282.896729</ele>
        <time>2010-08-04T16:08:35Z</time>
      </trkpt>
      <trkpt lat="48.74678" lon="7.34419">
        <ele>281.802979</ele>
        <time>2010-08-04T16:08:41Z</time>
      </trkpt>
      <trkpt lat="48.74664" lon="7.34429">
        <ele>281.381104</ele>
        <time>2010-08-04T16:08:47Z</time>
      </trkpt>
      <trkpt lat="48.74651" lon="7.34442">
        <ele>281.670166</ele>
        <time>2010-08-04T16:08:52Z</time>
      </trkpt>
      <trkpt lat="48.74643" lon="7.34462">
        <ele>279.615479</ele>
        <time>2010-08-04T16:08:56Z</time>
      </trkpt>
      <trkpt lat="48.74633" lon="7.34477">
        <ele>278.826416</ele>
        <time>2010-08-04T16:09:00Z</time>
      </trkpt>
      <trkpt lat="48.7462" lon="7.34489">
        <ele>276.842041</ele>
        <time>2010-08-04T16:09:06Z</time>
      </trkpt>
      <trkpt lat="48.74624" lon="7.3447">
        <ele>269.896729</ele>
        <time>2010-08-04T16:09:36Z</time>
      </trkpt>
      <trkpt lat="48.74627" lon="7.34451">
        <ele>265.006104</ele>
        <time>2010-08-04T16:09:41Z</time>
      </trkpt>
      <trkpt lat="48.74637" lon="7.34431">
        <ele>261.381104</ele>
        <time>2010-08-04T16:09:46Z</time>
      </trkpt>
      <trkpt lat="48.74641" lon="7.34406">
        <ele>257.623291</ele>
        <time>2010-08-04T16:09:49Z</time>
      </trkpt>
      <trkpt lat="48.74647" lon="7.34385">
        <ele>254.467896</ele>
        <time>2010-08-04T16:09:53Z</time>
      </trkpt>
      <trkpt lat="48.74653" lon="7.34361">
        <ele>250.624146</ele>
        <time>2010-08-04T16:09:58Z</time>
      </trkpt>
      <trkpt lat="48.74656" lon="7.34338">
        <ele>249.088989</ele>
        <time>2010-08-04T16:10:02Z</time>
      </trkpt>
      <trkpt lat="48.74649" lon="7.34314">
        <ele>248.006958</ele>
        <time>2010-08-04T16:10:08Z</time>
      </trkpt>
      <trkpt lat="48.74639" lon="7.34292">
        <ele>247.288208</ele>
        <time>2010-08-04T16:10:11Z</time>
      </trkpt>
      <trkpt lat="48.74626" lon="7.34276">
        <ele>246.569458</ele>
        <time>2010-08-04T16:10:14Z</time>
      </trkpt>
      <trkpt lat="48.74617" lon="7.34259">
        <ele>243.983521</ele>
        <time>2010-08-04T16:10:17Z</time>
      </trkpt>
      <trkpt lat="48.74627" lon="7.34272">
        <ele>236.272583</ele>
        <time>2010-08-04T16:10:33Z</time>
      </trkpt>
      <trkpt lat="48.74622" lon="7.34292">
        <ele>235.241333</ele>
        <time>2010-08-04T16:10:38Z</time>
      </trkpt>
      <trkpt lat="48.74616" lon="7.34313">
        <ele>235.288208</ele>
        <time>2010-08-04T16:10:43Z</time>
      </trkpt>
      <trkpt lat="48.74608" lon="7.34334">
        <ele>235.780396</ele>
        <time>2010-08-04T16:10:48Z</time>
      </trkpt>
      <trkpt lat="48.74599" lon="7.34353">
        <ele>235.756958</ele>
        <time>2010-08-04T16:10:53Z</time>
      </trkpt>
      <trkpt lat="48.74588" lon="7.34369">
        <ele>236.272583</ele>
        <time>2010-08-04T16:10:58Z</time>
      </trkpt>
      <trkpt lat="48.74575" lon="7.34383">
        <ele>235.432739</ele>
        <time>2010-08-04T16:11:03Z</time>
      </trkpt>
      <trkpt lat="48.74563" lon="7.34398">
        <ele>234.764771</ele>
        <time>2010-08-04T16:11:07Z</time>
      </trkpt>
      <trkpt lat="48.74551" lon="7.34409">
        <ele>234.565552</ele>
        <time>2010-08-04T16:11:10Z</time>
      </trkpt>
      <trkpt lat="48.74543" lon="7.34431">
        <ele>233.452271</ele>
        <time>2010-08-04T16:11:14Z</time>
      </trkpt>
      <trkpt lat="48.7454" lon="7.34454">
        <ele>234.753052</ele>
        <time>2010-08-04T16:11:17Z</time>
      </trkpt>
      <trkpt lat="48.74535" lon="7.34475">
        <ele>234.581177</ele>
        <time>2010-08-04T16:11:20Z</time>
      </trkpt>
      <trkpt lat="48.74533" lon="7.34506">
        <ele>233.307739</ele>
        <time>2010-08-04T16:11:23Z</time>
      </trkpt>
      <trkpt lat="48.74529" lon="7.34531">
        <ele>232.495239</ele>
        <time>2010-08-04T16:11:26Z</time>
      </trkpt>
      <trkpt lat="48.74526" lon="7.34555">
        <ele>231.421021</ele>
        <time>2010-08-04T16:11:29Z</time>
      </trkpt>
      <trkpt lat="48.74524" lon="7.34576">
        <ele>229.303833</ele>
        <time>2010-08-04T16:11:33Z</time>
      </trkpt>
      <trkpt lat="48.74523" lon="7.34602">
        <ele>227.760864</ele>
        <time>2010-08-04T16:11:37Z</time>
      </trkpt>
      <trkpt lat="48.74525" lon="7.34628">
        <ele>225.213989</ele>
        <time>2010-08-04T16:11:40Z</time>
      </trkpt>
      <trkpt lat="48.74525" lon="7.34649">
        <ele>223.647583</ele>
        <time>2010-08-04T16:11:42Z</time>
      </trkpt>
      <trkpt lat="48.74525" lon="7.34671">
        <ele>222.026489</ele>
        <time>2010-08-04T16:11:44Z</time>
      </trkpt>
      <trkpt lat="48.74524" lon="7.34702">
        <ele>220.960083</ele>
        <time>2010-08-04T16:11:47Z</time>
      </trkpt>
      <trkpt lat="48.74522" lon="7.34729">
        <ele>218.823364</ele>
        <time>2010-08-04T16:11:50Z</time>
      </trkpt>
      <trkpt lat="48.74521" lon="7.34757">
        <ele>215.811646</ele>
        <time>2010-08-04T16:11:53Z</time>
      </trkpt>
      <trkpt lat="48.7452" lon="7.34784">
        <ele>213.327271</ele>
        <time>2010-08-04T16:11:56Z</time>
      </trkpt>
      <trkpt lat="48.74519" lon="7.34812">
        <ele>211.604614</ele>
        <time>2010-08-04T16:11:59Z</time>
      </trkpt>
      <trkpt lat="48.74518" lon="7.34839">
        <ele>210.143677</ele>
        <time>2010-08-04T16:12:02Z</time>
      </trkpt>
      <trkpt lat="48.74517" lon="7.34863">
        <ele>209.233521</ele>
        <time>2010-08-04T16:12:05Z</time>
      </trkpt>
      <trkpt lat="48.74516" lon="7.34885">
        <ele>208.604614</ele>
        <time>2010-08-04T16:12:08Z</time>
      </trkpt>
      <trkpt lat="48.74514" lon="7.34909">
        <ele>207.803833</ele>
        <time>2010-08-04T16:12:11Z</time>
      </trkpt>
      <trkpt lat="48.74513" lon="7.3493">
        <ele>207.198364</ele>
        <time>2010-08-04T16:12:14Z</time>
      </trkpt>
      <trkpt lat="48.74513" lon="7.34956">
        <ele>206.788208</ele>
        <time>2010-08-04T16:12:19Z</time>
      </trkpt>
      <trkpt lat="48.74512" lon="7.3498">
        <ele>206.061646</ele>
        <time>2010-08-04T16:12:23Z</time>
      </trkpt>
      <trkpt lat="48.7451" lon="7.35003">
        <ele>204.878052</ele>
        <time>2010-08-04T16:12:27Z</time>
      </trkpt>
      <trkpt lat="48.74509" lon="7.35026">
        <ele>204.038208</ele>
        <time>2010-08-04T16:12:32Z</time>
      </trkpt>
      <trkpt lat="48.74516" lon="7.35044">
        <ele>203.042114</ele>
        <time>2010-08-04T16:12:35Z</time>
      </trkpt>
      <trkpt lat="48.74524" lon="7.35064">
        <ele>202.174927</ele>
        <time>2010-08-04T16:12:38Z</time>
      </trkpt>
      <trkpt lat="48.74533" lon="7.35085">
        <ele>200.987427</ele>
        <time>2010-08-04T16:12:41Z</time>
      </trkpt>
      <trkpt lat="48.74542" lon="7.35109">
        <ele>199.448364</ele>
        <time>2010-08-04T16:12:44Z</time>
      </trkpt>
      <trkpt lat="48.74551" lon="7.35134">
        <ele>198.272583</ele>
        <time>2010-08-04T16:12:47Z</time>
      </trkpt>
      <trkpt lat="48.7456" lon="7.3516">
        <ele>197.210083</ele>
        <time>2010-08-04T16:12:50Z</time>
      </trkpt>
      <trkpt lat="48.74571" lon="7.35185">
        <ele>196.866333</ele>
        <time>2010-08-04T16:12:53Z</time>
      </trkpt>
      <trkpt lat="48.74582" lon="7.3521">
        <ele>196.225708</ele>
        <time>2010-08-04T16:12:56Z</time>
      </trkpt>
      <trkpt lat="48.74594" lon="7.35232">
        <ele>194.745239</ele>
        <time>2010-08-04T16:12:59Z</time>
      </trkpt>
      <trkpt lat="48.74603" lon="7.35255">
        <ele>195.491333</ele>
        <time>2010-08-04T16:13:02Z</time>
      </trkpt>
      <trkpt lat="48.74609" lon="7.35277">
        <ele>196.440552</ele>
        <time>2010-08-04T16:13:05Z</time>
      </trkpt>
      <trkpt lat="48.74611" lon="7.353">
        <ele>197.592896</ele>
        <time>2010-08-04T16:13:08Z</time>
      </trkpt>
      <trkpt lat="48.74608" lon="7.35324">
        <ele>197.206177</ele>
        <time>2010-08-04T16:13:11Z</time>
      </trkpt>
      <trkpt lat="48.74603" lon="7.35349">
        <ele>196.960083</ele>
        <time>2010-08-04T16:13:14Z</time>
      </trkpt>
      <trkpt lat="48.74597" lon="7.35374">
        <ele>197.534302</ele>
        <time>2010-08-04T16:13:17Z</time>
      </trkpt>
      <trkpt lat="48.74592" lon="7.35398">
        <ele>197.760864</ele>
        <time>2010-08-04T16:13:20Z</time>
      </trkpt>
      <trkpt lat="48.74587" lon="7.35423">
        <ele>197.604614</ele>
        <time>2010-08-04T16:13:23Z</time>
      </trkpt>
      <trkpt lat="48.74581" lon="7.35448">
        <ele>197.741333</ele>
        <time>2010-08-04T16:13:26Z</time>
      </trkpt>
      <trkpt lat="48.74575" lon="7.35471">
        <ele>197.952271</ele>
        <time>2010-08-04T16:13:29Z</time>
      </trkpt>
      <trkpt lat="48.74571" lon="7.35495">
        <ele>198.440552</ele>
        <time>2010-08-04T16:13:32Z</time>
      </trkpt>
      <trkpt lat="48.74565" lon="7.35518">
        <ele>199.139771</ele>
        <time>2010-08-04T16:13:35Z</time>
      </trkpt>
      <trkpt lat="48.74559" lon="7.35538">
        <ele>199.299927</ele>
        <time>2010-08-04T16:13:38Z</time>
      </trkpt>
      <trkpt lat="48.7455" lon="7.35557">
        <ele>199.393677</ele>
        <time>2010-08-04T16:13:45Z</time>
      </trkpt>
      <trkpt lat="48.74534" lon="7.35567">
        <ele>198.870239</ele>
        <time>2010-08-04T16:13:49Z</time>
      </trkpt>
      <trkpt lat="48.74517" lon="7.35575">
        <ele>198.221802</ele>
        <time>2010-08-04T16:13:52Z</time>
      </trkpt>
      <trkpt lat="48.74499" lon="7.35582">
        <ele>197.210083</ele>
        <time>2010-08-04T16:13:55Z</time>
      </trkpt>
      <trkpt lat="48.74481" lon="7.35592">
        <ele>198.100708</ele>
        <time>2010-08-04T16:13:58Z</time>
      </trkpt>
      <trkpt lat="48.74464" lon="7.356">
        <ele>198.768677</ele>
        <time>2010-08-04T16:14:01Z</time>
      </trkpt>
      <trkpt lat="48.74449" lon="7.35609">
        <ele>197.663208</ele>
        <time>2010-08-04T16:14:04Z</time>
      </trkpt>
      <trkpt lat="48.74432" lon="7.35619">
        <ele>197.217896</ele>
        <time>2010-08-04T16:14:07Z</time>
      </trkpt>
      <trkpt lat="48.74415" lon="7.35635">
        <ele>196.358521</ele>
        <time>2010-08-04T16:14:10Z</time>
      </trkpt>
      <trkpt lat="48.74399" lon="7.35651">
        <ele>195.577271</ele>
        <time>2010-08-04T16:14:13Z</time>
      </trkpt>
      <trkpt lat="48.74382" lon="7.35667">
        <ele>195.065552</ele>
        <time>2010-08-04T16:14:16Z</time>
      </trkpt>
      <trkpt lat="48.7437" lon="7.35678">
        <ele>194.296021</ele>
        <time>2010-08-04T16:14:18Z</time>
      </trkpt>
      <trkpt lat="48.74357" lon="7.35687">
        <ele>193.835083</ele>
        <time>2010-08-04T16:14:20Z</time>
      </trkpt>
      <trkpt lat="48.74343" lon="7.35693">
        <ele>193.042114</ele>
        <time>2010-08-04T16:14:22Z</time>
      </trkpt>
      <trkpt lat="48.74329" lon="7.35698">
        <ele>192.026489</ele>
        <time>2010-08-04T16:14:24Z</time>
      </trkpt>
      <trkpt lat="48.74315" lon="7.357">
        <ele>190.600708</ele>
        <time>2010-08-04T16:14:26Z</time>
      </trkpt>
      <trkpt lat="48.74299" lon="7.35702">
        <ele>189.889771</ele>
        <time>2010-08-04T16:14:28Z</time>
      </trkpt>
      <trkpt lat="48.74284" lon="7.35705">
        <ele>189.639771</ele>
        <time>2010-08-04T16:14:30Z</time>
      </trkpt>
      <trkpt lat="48.7427" lon="7.35709">
        <ele>190.046021</ele>
        <time>2010-08-04T16:14:32Z</time>
      </trkpt>
      <trkpt lat="48.74252" lon="7.3572">
        <ele>189.936646</ele>
        <time>2010-08-04T16:14:35Z</time>
      </trkpt>
      <trkpt lat="48.74234" lon="7.35733">
        <ele>190.503052</ele>
        <time>2010-08-04T16:14:38Z</time>
      </trkpt>
      <trkpt lat="48.74218" lon="7.3575">
        <ele>191.815552</ele>
        <time>2010-08-04T16:14:41Z</time>
      </trkpt>
      <trkpt lat="48.74153" lon="7.35867">
        <ele>198.713989</ele>
        <time>2010-08-04T16:15:22Z</time>
      </trkpt>
    </trkseg>
  </trk>
</gpx>